TimeCDT,TemperatureF,Dew PointF,Humidity,Sea Level PressureIn,VisibilityMPH,Wind Direction,Wind SpeedMPH,Gust SpeedMPH,PrecipitationIn,Events,Conditions,WindDirDegrees,DateUTC
12:58 AM,57.4,53.8,88,30.01,10.0,SE,5.8,-,N/A,,Clear,140,2013-05-08 05:58:00
1:58 AM,55.4,53.2,92,30.01,10.0,SSE,5.8,-,N/A,,Clear,160,2013-05-08 06:58:00
2:58 AM,54.5,53.1,95,30.01,10.0,SSE,4.6,-,N/A,,Clear,150,2013-05-08 07:58:00
3:58 AM,53.4,52.5,97,30.00,10.0,SSE,4.6,-,N/A,,Clear,160,2013-05-08 08:58:00
4:58 AM,52.7,52.5,99,30.01,10.0,SE,5.8,-,N/A,,Clear,140,2013-05-08 09:58:00
5:58 AM,51.8,51.8,100,30.01,10.0,South,4.6,-,N/A,,Clear,170,2013-05-08 10:58:00
6:58 AM,53.6,53.6,100,30.04,10.0,SSE,4.6,-,N/A,,Clear,150,2013-05-08 11:58:00
7:58 AM,60.1,55.4,85,30.04,10.0,SSE,2.3,-,N/A,,Clear,160,2013-05-08 12:58:00
8:58 AM,68.5,55.4,63,30.05,10.0,SSW,5.8,-,N/A,,Clear,210,2013-05-08 13:58:00
9:58 AM,73.8,53.8,50,30.05,10.0,WSW,5.8,-,N/A,,Clear,250,2013-05-08 14:58:00
10:58 AM,76.1,53.4,45,30.06,10.0,Variable,4.6,-,N/A,,Clear,0,2013-05-08 15:58:00
11:58 AM,76.8,51.1,40,30.05,10.0,WSW,8.1,-,N/A,,Mostly Cloudy,240,2013-05-08 16:58:00
12:58 PM,75.9,51.3,42,30.04,10.0,West,4.6,-,N/A,,Mostly Cloudy,270,2013-05-08 17:58:00
1:55 PM,72.5,53.1,50,30.03,10.0,WNW,10.4,-,N/A,,Mostly Cloudy,300,2013-05-08 18:55:00
2:12 PM,71.6,53.6,53,30.06,10.0,West,8.1,-,N/A,,Light Drizzle,280,2013-05-08 19:12:00
2:20 PM,71.6,53.6,53,30.06,10.0,WNW,11.5,-,N/A,,Mostly Cloudy,290,2013-05-08 19:20:00
2:25 PM,71.6,53.6,53,30.06,10.0,WNW,10.4,-,N/A,,Light Drizzle,300,2013-05-08 19:25:00
2:58 PM,68.4,56.1,65,30.06,10.0,WNW,5.8,-,0.00,,Light Drizzle,300,2013-05-08 19:58:00
3:11 PM,68.0,55.4,64,30.05,10.0,Variable,2.3,-,N/A,,Mostly Cloudy,0,2013-05-08 20:11:00
3:21 PM,68.0,57.2,68,30.05,10.0,Variable,2.3,-,N/A,,Light Drizzle,0,2013-05-08 20:21:00
3:46 PM,66.2,59.0,78,30.02,4.0,Variable,2.3,-,N/A,,Haze,0,2013-05-08 20:46:00
3:58 PM,66.9,59.5,77,29.99,10.0,ESE,10.4,-,0.00,,Mostly Cloudy,110,2013-05-08 20:58:00
4:58 PM,69.4,58.1,67,30.00,10.0,NE,3.5,-,N/A,,Mostly Cloudy,50,2013-05-08 21:58:00
5:58 PM,72.5,59.0,62,30.01,10.0,SE,4.6,-,N/A,,Mostly Cloudy,130,2013-05-08 22:58:00
6:58 PM,70.2,59.0,68,30.00,10.0,East,4.6,-,N/A,,Overcast,90,2013-05-08 23:58:00
7:58 PM,69.1,58.1,68,29.97,10.0,ESE,6.9,-,N/A,,Overcast,120,2013-05-09 00:58:00
8:58 PM,66.0,57.4,74,29.97,10.0,East,6.9,-,N/A,,Scattered Clouds,100,2013-05-09 01:58:00
9:58 PM,64.8,57.9,78,29.97,10.0,ESE,9.2,-,N/A,,Clear,120,2013-05-09 02:58:00
10:58 PM,63.5,57.9,82,29.96,10.0,ESE,6.9,-,N/A,,Partly Cloudy,110,2013-05-09 03:58:00
11:58 PM,62.1,57.9,86,29.98,10.0,SSE,8.1,-,N/A,,Mostly Cloudy,150,2013-05-09 04:58:00